sensor_id;sensor_type;location;lat;lon;timestamp;P1;durP1;ratioP1;P2;durP2;ratioP2
10333;SDS011;5212;47.892;16.406;2023-07-28T00:02:21;2.23;;;2.00;;
10333;SDS011;5212;47.892;16.406;2023-07-28T00:04:47;3.30;;;2.33;;
10333;SDS011;5212;47.892;16.406;2023-07-28T00:07:13;2.37;;;2.07;;
10333;SDS011;5212;47.892;16.406;2023-07-28T00:09:39;2.13;;;1.93;;
10333;SDS011;5212;47.892;16.406;2023-07-28T00:12:05;1.93;;;1.83;;
10333;SDS011;5212;47.892;16.406;2023-07-28T00:14:32;2.43;;;1.90;;
10333;SDS011;5212;47.892;16.406;2023-07-28T00:16:58;3.00;;;2.40;;
10333;SDS011;5212;47.892;16.406;2023-07-28T00:19:24;2.33;;;2.13;;
10333;SDS011;5212;47.892;16.406;2023-07-28T00:21:51;2.10;;;1.90;;
10333;SDS011;5212;47.892;16.406;2023-07-28T00:24:17;3.17;;;2.13;;
10333;SDS011;5212;47.892;16.406;2023-07-28T00:26:43;1.93;;;1.83;;
10333;SDS011;5212;47.892;16.406;2023-07-28T00:29:10;2.20;;;2.00;;
10333;SDS011;5212;47.892;16.406;2023-07-28T00:31:36;2.20;;;2.00;;
10333;SDS011;5212;47.892;16.406;2023-07-28T00:34:02;2.23;;;2.03;;
10333;SDS011;5212;47.892;16.406;2023-07-28T00:36:29;3.30;;;2.20;;
10333;SDS011;5212;47.892;16.406;2023-07-28T00:38:55;2.20;;;2.00;;
10333;SDS011;5212;47.892;16.406;2023-07-28T00:41:21;2.23;;;2.03;;
10333;SDS011;5212;47.892;16.406;2023-07-28T00:43:47;2.20;;;2.00;;
10333;SDS011;5212;47.892;16.406;2023-07-28T00:46:13;2.20;;;2.00;;
10333;SDS011;5212;47.892;16.406;2023-07-28T00:48:40;2.10;;;1.90;;
10333;SDS011;5212;47.892;16.406;2023-07-28T00:51:06;2.20;;;2.00;;
10333;SDS011;5212;47.892;16.406;2023-07-28T00:53:33;2.50;;;2.30;;
10333;SDS011;5212;47.892;16.406;2023-07-28T00:55:59;2.37;;;2.17;;
10333;SDS011;5212;47.892;16.406;2023-07-28T00:58:26;2.40;;;2.20;;
10333;SDS011;5212;47.892;16.406;2023-07-28T01:00:53;2.43;;;2.23;;
10333;SDS011;5212;47.892;16.406;2023-07-28T01:03:19;2.00;;;1.80;;
10333;SDS011;5212;47.892;16.406;2023-07-28T01:05:48;2.70;;;2.50;;
10333;SDS011;5212;47.892;16.406;2023-07-28T01:08:33;2.30;;;2.03;;
10333;SDS011;5212;47.892;16.406;2023-07-28T01:11:02;2.50;;;2.30;;
10333;SDS011;5212;47.892;16.406;2023-07-28T01:13:28;2.90;;;2.10;;
10333;SDS011;5212;47.892;16.406;2023-07-28T01:15:54;2.43;;;2.10;;
10333;SDS011;5212;47.892;16.406;2023-07-28T01:18:20;3.63;;;2.20;;
10333;SDS011;5212;47.892;16.406;2023-07-28T01:20:46;2.77;;;2.10;;
10333;SDS011;5212;47.892;16.406;2023-07-28T01:23:18;2.23;;;2.03;;
10333;SDS011;5212;47.892;16.406;2023-07-28T01:25:53;2.37;;;2.17;;
10333;SDS011;5212;47.892;16.406;2023-07-28T01:28:23;2.30;;;2.00;;
10333;SDS011;5212;47.892;16.406;2023-07-28T01:30:50;2.43;;;2.23;;
10333;SDS011;5212;47.892;16.406;2023-07-28T01:33:16;2.53;;;2.33;;
10333;SDS011;5212;47.892;16.406;2023-07-28T01:35:42;2.13;;;1.93;;
10333;SDS011;5212;47.892;16.406;2023-07-28T01:38:08;2.63;;;2.43;;
10333;SDS011;5212;47.892;16.406;2023-07-28T01:40:34;2.30;;;2.00;;
10333;SDS011;5212;47.892;16.406;2023-07-28T01:43:00;2.50;;;2.00;;
10333;SDS011;5212;47.892;16.406;2023-07-28T01:45:26;3.00;;;2.37;;
10333;SDS011;5212;47.892;16.406;2023-07-28T01:47:52;3.27;;;2.13;;
10333;SDS011;5212;47.892;16.406;2023-07-28T01:50:18;2.53;;;2.33;;
10333;SDS011;5212;47.892;16.406;2023-07-28T01:52:44;2.63;;;2.30;;
10333;SDS011;5212;47.892;16.406;2023-07-28T01:55:10;3.50;;;2.30;;
10333;SDS011;5212;47.892;16.406;2023-07-28T01:57:38;2.50;;;2.23;;
10333;SDS011;5212;47.892;16.406;2023-07-28T02:00:05;2.83;;;2.03;;
10333;SDS011;5212;47.892;16.406;2023-07-28T02:02:32;2.47;;;2.20;;
10333;SDS011;5212;47.892;16.406;2023-07-28T02:04:58;2.90;;;2.57;;
10333;SDS011;5212;47.892;16.406;2023-07-28T02:07:25;3.03;;;2.77;;
10333;SDS011;5212;47.892;16.406;2023-07-28T02:09:51;2.80;;;2.50;;
10333;SDS011;5212;47.892;16.406;2023-07-28T02:12:17;2.77;;;2.37;;
10333;SDS011;5212;47.892;16.406;2023-07-28T02:14:43;2.60;;;2.33;;
10333;SDS011;5212;47.892;16.406;2023-07-28T02:17:09;2.50;;;2.30;;
10333;SDS011;5212;47.892;16.406;2023-07-28T02:19:35;2.33;;;2.13;;
10333;SDS011;5212;47.892;16.406;2023-07-28T02:22:01;2.57;;;2.37;;
10333;SDS011;5212;47.892;16.406;2023-07-28T02:24:27;3.03;;;2.77;;
10333;SDS011;5212;47.892;16.406;2023-07-28T02:26:53;3.53;;;2.40;;
10333;SDS011;5212;47.892;16.406;2023-07-28T02:29:19;2.50;;;2.30;;
10333;SDS011;5212;47.892;16.406;2023-07-28T02:31:45;2.67;;;2.43;;
10333;SDS011;5212;47.892;16.406;2023-07-28T02:34:11;2.43;;;2.23;;
10333;SDS011;5212;47.892;16.406;2023-07-28T02:36:38;2.77;;;2.57;;
10333;SDS011;5212;47.892;16.406;2023-07-28T02:39:04;2.90;;;2.60;;
10333;SDS011;5212;47.892;16.406;2023-07-28T02:41:30;2.43;;;2.20;;
10333;SDS011;5212;47.892;16.406;2023-07-28T02:43:56;3.00;;;2.30;;
10333;SDS011;5212;47.892;16.406;2023-07-28T02:46:22;3.00;;;2.67;;
10333;SDS011;5212;47.892;16.406;2023-07-28T02:48:50;2.60;;;2.40;;
10333;SDS011;5212;47.892;16.406;2023-07-28T02:51:16;2.60;;;2.40;;
10333;SDS011;5212;47.892;16.406;2023-07-28T02:53:43;2.40;;;2.20;;
10333;SDS011;5212;47.892;16.406;2023-07-28T02:56:09;2.53;;;2.33;;
10333;SDS011;5212;47.892;16.406;2023-07-28T02:58:35;3.43;;;2.23;;
10333;SDS011;5212;47.892;16.406;2023-07-28T03:01:01;2.30;;;2.10;;
10333;SDS011;5212;47.892;16.406;2023-07-28T03:03:27;2.57;;;2.37;;
10333;SDS011;5212;47.892;16.406;2023-07-28T03:05:53;2.67;;;2.47;;
10333;SDS011;5212;47.892;16.406;2023-07-28T03:08:19;3.53;;;2.90;;
10333;SDS011;5212;47.892;16.406;2023-07-28T03:10:46;3.20;;;2.90;;
10333;SDS011;5212;47.892;16.406;2023-07-28T03:13:12;3.10;;;2.90;;
10333;SDS011;5212;47.892;16.406;2023-07-28T03:15:38;2.90;;;2.60;;
10333;SDS011;5212;47.892;16.406;2023-07-28T03:18:04;3.20;;;2.90;;
10333;SDS011;5212;47.892;16.406;2023-07-28T03:20:30;2.80;;;2.50;;
10333;SDS011;5212;47.892;16.406;2023-07-28T03:22:56;3.00;;;2.80;;
10333;SDS011;5212;47.892;16.406;2023-07-28T03:25:22;3.13;;;2.83;;
10333;SDS011;5212;47.892;16.406;2023-07-28T03:27:49;2.90;;;2.67;;
10333;SDS011;5212;47.892;16.406;2023-07-28T03:30:15;3.20;;;2.80;;
10333;SDS011;5212;47.892;16.406;2023-07-28T03:32:41;3.97;;;3.00;;
10333;SDS011;5212;47.892;16.406;2023-07-28T03:35:08;3.17;;;2.30;;
10333;SDS011;5212;47.892;16.406;2023-07-28T03:37:34;2.70;;;2.43;;
10333;SDS011;5212;47.892;16.406;2023-07-28T03:40:00;2.60;;;2.30;;
10333;SDS011;5212;47.892;16.406;2023-07-28T03:42:26;2.70;;;2.50;;
10333;SDS011;5212;47.892;16.406;2023-07-28T03:44:53;2.50;;;2.30;;
10333;SDS011;5212;47.892;16.406;2023-07-28T03:47:19;2.50;;;2.30;;
10333;SDS011;5212;47.892;16.406;2023-07-28T03:49:45;2.80;;;2.50;;
10333;SDS011;5212;47.892;16.406;2023-07-28T03:52:11;2.40;;;2.10;;
10333;SDS011;5212;47.892;16.406;2023-07-28T03:54:37;2.60;;;2.40;;
10333;SDS011;5212;47.892;16.406;2023-07-28T03:57:03;2.50;;;2.30;;
10333;SDS011;5212;47.892;16.406;2023-07-28T03:59:29;2.60;;;2.40;;
10333;SDS011;5212;47.892;16.406;2023-07-28T04:01:56;2.97;;;2.60;;
10333;SDS011;5212;47.892;16.406;2023-07-28T04:04:22;2.60;;;2.40;;
10333;SDS011;5212;47.892;16.406;2023-07-28T04:06:49;2.90;;;2.20;;
10333;SDS011;5212;47.892;16.406;2023-07-28T04:09:15;3.93;;;2.47;;
10333;SDS011;5212;47.892;16.406;2023-07-28T04:11:42;3.40;;;2.20;;
10333;SDS011;5212;47.892;16.406;2023-07-28T04:14:09;3.23;;;2.57;;
10333;SDS011;5212;47.892;16.406;2023-07-28T04:16:35;2.80;;;2.50;;
10333;SDS011;5212;47.892;16.406;2023-07-28T04:19:01;3.07;;;2.40;;
10333;SDS011;5212;47.892;16.406;2023-07-28T04:21:27;2.80;;;2.60;;
10333;SDS011;5212;47.892;16.406;2023-07-28T04:23:53;3.07;;;2.77;;
10333;SDS011;5212;47.892;16.406;2023-07-28T04:26:19;2.40;;;2.20;;
10333;SDS011;5212;47.892;16.406;2023-07-28T04:28:45;2.93;;;2.40;;
10333;SDS011;5212;47.892;16.406;2023-07-28T04:31:11;2.20;;;2.00;;
10333;SDS011;5212;47.892;16.406;2023-07-28T04:33:38;2.40;;;2.20;;
10333;SDS011;5212;47.892;16.406;2023-07-28T04:36:05;2.83;;;2.30;;
10333;SDS011;5212;47.892;16.406;2023-07-28T04:38:31;2.47;;;2.27;;
10333;SDS011;5212;47.892;16.406;2023-07-28T04:40:57;2.33;;;2.13;;
10333;SDS011;5212;47.892;16.406;2023-07-28T04:43:23;3.30;;;2.10;;
10333;SDS011;5212;47.892;16.406;2023-07-28T04:45:49;2.57;;;2.10;;
10333;SDS011;5212;47.892;16.406;2023-07-28T04:48:15;2.37;;;2.07;;
10333;SDS011;5212;47.892;16.406;2023-07-28T04:50:41;2.30;;;2.10;;
10333;SDS011;5212;47.892;16.406;2023-07-28T04:53:08;2.53;;;2.00;;
10333;SDS011;5212;47.892;16.406;2023-07-28T04:55:34;2.57;;;2.37;;
10333;SDS011;5212;47.892;16.406;2023-07-28T04:58:00;2.60;;;2.40;;
10333;SDS011;5212;47.892;16.406;2023-07-28T05:00:26;2.20;;;2.00;;
10333;SDS011;5212;47.892;16.406;2023-07-28T05:02:52;2.80;;;2.23;;
10333;SDS011;5212;47.892;16.406;2023-07-28T05:05:18;2.47;;;2.20;;
10333;SDS011;5212;47.892;16.406;2023-07-28T05:07:44;3.03;;;2.40;;
10333;SDS011;5212;47.892;16.406;2023-07-28T05:10:10;2.43;;;2.23;;
10333;SDS011;5212;47.892;16.406;2023-07-28T05:12:36;2.77;;;2.33;;
10333;SDS011;5212;47.892;16.406;2023-07-28T05:15:04;2.30;;;2.10;;
10333;SDS011;5212;47.892;16.406;2023-07-28T05:17:35;3.40;;;2.20;;
10333;SDS011;5212;47.892;16.406;2023-07-28T05:20:01;2.30;;;2.00;;
10333;SDS011;5212;47.892;16.406;2023-07-28T05:22:27;2.67;;;2.43;;
10333;SDS011;5212;47.892;16.406;2023-07-28T05:24:53;2.50;;;2.20;;
10333;SDS011;5212;47.892;16.406;2023-07-28T05:27:20;2.63;;;2.43;;
10333;SDS011;5212;47.892;16.406;2023-07-28T05:29:46;2.70;;;2.20;;
10333;SDS011;5212;47.892;16.406;2023-07-28T05:32:12;2.80;;;2.27;;
10333;SDS011;5212;47.892;16.406;2023-07-28T05:34:38;2.73;;;2.17;;
10333;SDS011;5212;47.892;16.406;2023-07-28T05:37:07;2.67;;;2.30;;
10333;SDS011;5212;47.892;16.406;2023-07-28T05:39:33;2.90;;;2.50;;
10333;SDS011;5212;47.892;16.406;2023-07-28T05:41:59;5.53;;;2.70;;
10333;SDS011;5212;47.892;16.406;2023-07-28T05:44:26;3.23;;;2.60;;
10333;SDS011;5212;47.892;16.406;2023-07-28T05:46:52;2.60;;;2.40;;
10333;SDS011;5212;47.892;16.406;2023-07-28T05:49:18;2.73;;;2.40;;
10333;SDS011;5212;47.892;16.406;2023-07-28T05:51:44;2.60;;;2.40;;
10333;SDS011;5212;47.892;16.406;2023-07-28T05:54:11;3.07;;;2.77;;
10333;SDS011;5212;47.892;16.406;2023-07-28T05:56:38;3.33;;;2.33;;
10333;SDS011;5212;47.892;16.406;2023-07-28T05:59:03;2.60;;;2.40;;
10333;SDS011;5212;47.892;16.406;2023-07-28T06:01:30;3.33;;;2.50;;
10333;SDS011;5212;47.892;16.406;2023-07-28T06:03:56;2.73;;;2.50;;
10333;SDS011;5212;47.892;16.406;2023-07-28T06:06:24;2.97;;;2.30;;
10333;SDS011;5212;47.892;16.406;2023-07-28T06:08:49;2.60;;;2.40;;
10333;SDS011;5212;47.892;16.406;2023-07-28T06:11:15;2.93;;;2.60;;
10333;SDS011;5212;47.892;16.406;2023-07-28T06:13:41;2.70;;;2.50;;
10333;SDS011;5212;47.892;16.406;2023-07-28T06:16:08;3.30;;;2.33;;
10333;SDS011;5212;47.892;16.406;2023-07-28T06:18:34;4.23;;;2.70;;
10333;SDS011;5212;47.892;16.406;2023-07-28T06:21:00;2.60;;;2.40;;
10333;SDS011;5212;47.892;16.406;2023-07-28T06:23:27;3.00;;;2.70;;
10333;SDS011;5212;47.892;16.406;2023-07-28T06:25:53;3.07;;;2.53;;
10333;SDS011;5212;47.892;16.406;2023-07-28T06:28:20;3.27;;;2.47;;
10333;SDS011;5212;47.892;16.406;2023-07-28T06:30:46;3.10;;;2.80;;
10333;SDS011;5212;47.892;16.406;2023-07-28T06:33:12;2.80;;;2.57;;
10333;SDS011;5212;47.892;16.406;2023-07-28T06:35:38;3.00;;;2.70;;
10333;SDS011;5212;47.892;16.406;2023-07-28T06:38:04;2.70;;;2.50;;
10333;SDS011;5212;47.892;16.406;2023-07-28T06:40:30;3.73;;;2.77;;
10333;SDS011;5212;47.892;16.406;2023-07-28T06:42:56;3.73;;;2.93;;
10333;SDS011;5212;47.892;16.406;2023-07-28T06:45:22;3.07;;;2.40;;
10333;SDS011;5212;47.892;16.406;2023-07-28T06:47:48;2.67;;;2.47;;
10333;SDS011;5212;47.892;16.406;2023-07-28T06:50:14;2.53;;;2.33;;
10333;SDS011;5212;47.892;16.406;2023-07-28T06:52:41;4.50;;;2.97;;
10333;SDS011;5212;47.892;16.406;2023-07-28T06:55:08;3.43;;;2.47;;
10333;SDS011;5212;47.892;16.406;2023-07-28T06:57:34;2.70;;;2.50;;
10333;SDS011;5212;47.892;16.406;2023-07-28T07:00:00;2.57;;;2.37;;
10333;SDS011;5212;47.892;16.406;2023-07-28T07:02:26;2.50;;;2.30;;
10333;SDS011;5212;47.892;16.406;2023-07-28T07:04:52;4.77;;;2.37;;
10333;SDS011;5212;47.892;16.406;2023-07-28T07:07:18;2.40;;;2.20;;
10333;SDS011;5212;47.892;16.406;2023-07-28T07:09:45;2.33;;;2.13;;
10333;SDS011;5212;47.892;16.406;2023-07-28T07:12:11;2.30;;;2.10;;
10333;SDS011;5212;47.892;16.406;2023-07-28T07:14:37;2.40;;;2.20;;
10333;SDS011;5212;47.892;16.406;2023-07-28T07:17:03;2.70;;;2.30;;
10333;SDS011;5212;47.892;16.406;2023-07-28T07:19:29;2.00;;;1.80;;
10333;SDS011;5212;47.892;16.406;2023-07-28T07:21:56;2.30;;;2.10;;
10333;SDS011;5212;47.892;16.406;2023-07-28T07:24:22;2.30;;;2.10;;
10333;SDS011;5212;47.892;16.406;2023-07-28T07:26:48;3.97;;;2.00;;
10333;SDS011;5212;47.892;16.406;2023-07-28T07:29:15;3.67;;;1.77;;
10333;SDS011;5212;47.892;16.406;2023-07-28T07:31:42;2.20;;;2.00;;
10333;SDS011;5212;47.892;16.406;2023-07-28T07:34:08;2.20;;;2.00;;
10333;SDS011;5212;47.892;16.406;2023-07-28T07:36:34;2.37;;;1.90;;
10333;SDS011;5212;47.892;16.406;2023-07-28T07:39:00;3.23;;;2.00;;
10333;SDS011;5212;47.892;16.406;2023-07-28T07:41:26;2.30;;;2.10;;
10333;SDS011;5212;47.892;16.406;2023-07-28T07:43:53;2.07;;;1.83;;
10333;SDS011;5212;47.892;16.406;2023-07-28T07:46:19;1.70;;;1.60;;
10333;SDS011;5212;47.892;16.406;2023-07-28T07:48:46;2.50;;;1.97;;
10333;SDS011;5212;47.892;16.406;2023-07-28T07:51:12;2.40;;;1.90;;
10333;SDS011;5212;47.892;16.406;2023-07-28T07:53:38;3.33;;;1.73;;
10333;SDS011;5212;47.892;16.406;2023-07-28T07:56:04;1.97;;;1.80;;
10333;SDS011;5212;47.892;16.406;2023-07-28T07:58:31;2.80;;;2.03;;
10333;SDS011;5212;47.892;16.406;2023-07-28T08:00:58;2.60;;;2.17;;
10333;SDS011;5212;47.892;16.406;2023-07-28T08:03:24;2.10;;;1.90;;
10333;SDS011;5212;47.892;16.406;2023-07-28T08:05:50;2.60;;;2.10;;
10333;SDS011;5212;47.892;16.406;2023-07-28T08:08:16;2.57;;;1.70;;
10333;SDS011;5212;47.892;16.406;2023-07-28T08:10:44;1.97;;;1.77;;
10333;SDS011;5212;47.892;16.406;2023-07-28T08:13:10;2.20;;;2.00;;
10333;SDS011;5212;47.892;16.406;2023-07-28T08:15:37;3.00;;;1.80;;
10333;SDS011;5212;47.892;16.406;2023-07-28T08:18:03;2.17;;;1.97;;
10333;SDS011;5212;47.892;16.406;2023-07-28T08:20:29;2.47;;;2.10;;
10333;SDS011;5212;47.892;16.406;2023-07-28T08:22:55;1.83;;;1.67;;
10333;SDS011;5212;47.892;16.406;2023-07-28T08:25:21;2.10;;;1.93;;
10333;SDS011;5212;47.892;16.406;2023-07-28T08:27:48;2.23;;;1.80;;
10333;SDS011;5212;47.892;16.406;2023-07-28T08:30:14;2.33;;;1.97;;
10333;SDS011;5212;47.892;16.406;2023-07-28T08:32:41;1.90;;;1.80;;
10333;SDS011;5212;47.892;16.406;2023-07-28T08:35:07;2.43;;;1.90;;
10333;SDS011;5212;47.892;16.406;2023-07-28T08:37:34;2.93;;;1.93;;
10333;SDS011;5212;47.892;16.406;2023-07-28T08:40:00;1.93;;;1.83;;
10333;SDS011;5212;47.892;16.406;2023-07-28T08:42:26;1.67;;;1.57;;
10333;SDS011;5212;47.892;16.406;2023-07-28T08:44:54;2.30;;;2.10;;
10333;SDS011;5212;47.892;16.406;2023-07-28T08:47:20;3.50;;;1.70;;
10333;SDS011;5212;47.892;16.406;2023-07-28T08:49:46;2.27;;;1.93;;
10333;SDS011;5212;47.892;16.406;2023-07-28T08:52:15;2.10;;;1.90;;
10333;SDS011;5212;47.892;16.406;2023-07-28T08:54:41;2.00;;;1.70;;
10333;SDS011;5212;47.892;16.406;2023-07-28T08:57:08;2.20;;;2.00;;
10333;SDS011;5212;47.892;16.406;2023-07-28T08:59:34;2.10;;;1.90;;
10333;SDS011;5212;47.892;16.406;2023-07-28T09:02:01;2.20;;;2.00;;
10333;SDS011;5212;47.892;16.406;2023-07-28T09:04:29;2.00;;;1.90;;
10333;SDS011;5212;47.892;16.406;2023-07-28T09:06:55;1.93;;;1.73;;
10333;SDS011;5212;47.892;16.406;2023-07-28T09:09:22;3.13;;;1.90;;
10333;SDS011;5212;47.892;16.406;2023-07-28T09:11:49;1.80;;;1.70;;
10333;SDS011;5212;47.892;16.406;2023-07-28T09:14:16;2.77;;;1.77;;
10333;SDS011;5212;47.892;16.406;2023-07-28T09:16:42;1.80;;;1.70;;
10333;SDS011;5212;47.892;16.406;2023-07-28T09:19:09;1.87;;;1.73;;
10333;SDS011;5212;47.892;16.406;2023-07-28T09:21:35;2.40;;;1.70;;
10333;SDS011;5212;47.892;16.406;2023-07-28T09:24:03;2.20;;;1.80;;
10333;SDS011;5212;47.892;16.406;2023-07-28T09:26:36;2.30;;;2.00;;
10333;SDS011;5212;47.892;16.406;2023-07-28T09:29:10;1.83;;;1.73;;
10333;SDS011;5212;47.892;16.406;2023-07-28T09:31:37;2.07;;;1.90;;
10333;SDS011;5212;47.892;16.406;2023-07-28T09:34:03;1.90;;;1.80;;
10333;SDS011;5212;47.892;16.406;2023-07-28T09:36:32;2.40;;;2.20;;
10333;SDS011;5212;47.892;16.406;2023-07-28T09:38:58;2.27;;;2.07;;
10333;SDS011;5212;47.892;16.406;2023-07-28T09:41:24;2.20;;;2.00;;
10333;SDS011;5212;47.892;16.406;2023-07-28T09:43:51;2.00;;;1.90;;
10333;SDS011;5212;47.892;16.406;2023-07-28T09:46:18;2.13;;;1.93;;
10333;SDS011;5212;47.892;16.406;2023-07-28T09:48:45;1.90;;;1.80;;
10333;SDS011;5212;47.892;16.406;2023-07-28T09:51:11;2.23;;;2.03;;
10333;SDS011;5212;47.892;16.406;2023-07-28T09:53:43;1.70;;;1.60;;
10333;SDS011;5212;47.892;16.406;2023-07-28T09:56:12;2.00;;;1.83;;
10333;SDS011;5212;47.892;16.406;2023-07-28T09:58:41;3.93;;;2.10;;
10333;SDS011;5212;47.892;16.406;2023-07-28T10:01:08;2.20;;;2.00;;
10333;SDS011;5212;47.892;16.406;2023-07-28T10:03:34;2.00;;;1.90;;
10333;SDS011;5212;47.892;16.406;2023-07-28T10:06:01;2.00;;;1.80;;
10333;SDS011;5212;47.892;16.406;2023-07-28T10:08:27;1.97;;;1.80;;
10333;SDS011;5212;47.892;16.406;2023-07-28T10:10:54;2.43;;;2.20;;
10333;SDS011;5212;47.892;16.406;2023-07-28T10:13:20;2.23;;;2.03;;
10333;SDS011;5212;47.892;16.406;2023-07-28T10:15:47;2.50;;;2.30;;
10333;SDS011;5212;47.892;16.406;2023-07-28T10:18:14;2.13;;;1.93;;
10333;SDS011;5212;47.892;16.406;2023-07-28T10:20:41;1.97;;;1.80;;
10333;SDS011;5212;47.892;16.406;2023-07-28T10:23:11;1.80;;;1.70;;
10333;SDS011;5212;47.892;16.406;2023-07-28T10:25:38;2.10;;;1.90;;
10333;SDS011;5212;47.892;16.406;2023-07-28T10:28:06;2.20;;;2.00;;
10333;SDS011;5212;47.892;16.406;2023-07-28T10:30:36;1.80;;;1.70;;
10333;SDS011;5212;47.892;16.406;2023-07-28T10:33:03;1.90;;;1.70;;
10333;SDS011;5212;47.892;16.406;2023-07-28T10:35:30;1.97;;;1.73;;
10333;SDS011;5212;47.892;16.406;2023-07-28T10:37:58;2.23;;;1.67;;
10333;SDS011;5212;47.892;16.406;2023-07-28T10:40:26;1.97;;;1.80;;
10333;SDS011;5212;47.892;16.406;2023-07-28T10:42:53;2.10;;;1.80;;
10333;SDS011;5212;47.892;16.406;2023-07-28T10:45:19;2.23;;;1.97;;
10333;SDS011;5212;47.892;16.406;2023-07-28T10:47:46;2.37;;;2.17;;
10333;SDS011;5212;47.892;16.406;2023-07-28T10:50:13;1.90;;;1.80;;
10333;SDS011;5212;47.892;16.406;2023-07-28T10:52:40;3.67;;;1.93;;
10333;SDS011;5212;47.892;16.406;2023-07-28T10:55:11;3.30;;;2.30;;
10333;SDS011;5212;47.892;16.406;2023-07-28T10:57:38;2.73;;;1.60;;
10333;SDS011;5212;47.892;16.406;2023-07-28T11:00:06;2.17;;;1.97;;
10333;SDS011;5212;47.892;16.406;2023-07-28T11:02:33;1.60;;;1.50;;
10333;SDS011;5212;47.892;16.406;2023-07-28T11:04:59;2.37;;;2.00;;
10333;SDS011;5212;47.892;16.406;2023-07-28T11:07:25;3.37;;;1.90;;
10333;SDS011;5212;47.892;16.406;2023-07-28T11:09:52;3.03;;;2.10;;
10333;SDS011;5212;47.892;16.406;2023-07-28T11:12:19;2.17;;;1.97;;
10333;SDS011;5212;47.892;16.406;2023-07-28T11:14:45;2.30;;;1.93;;
10333;SDS011;5212;47.892;16.406;2023-07-28T11:17:11;2.10;;;1.90;;
10333;SDS011;5212;47.892;16.406;2023-07-28T11:19:37;1.93;;;1.83;;
10333;SDS011;5212;47.892;16.406;2023-07-28T11:22:03;2.30;;;2.10;;
10333;SDS011;5212;47.892;16.406;2023-07-28T11:24:29;2.20;;;1.90;;
10333;SDS011;5212;47.892;16.406;2023-07-28T11:26:56;2.13;;;1.93;;
10333;SDS011;5212;47.892;16.406;2023-07-28T11:29:23;2.50;;;2.30;;
10333;SDS011;5212;47.892;16.406;2023-07-28T11:31:49;2.20;;;2.00;;
10333;SDS011;5212;47.892;16.406;2023-07-28T11:34:16;2.10;;;1.90;;
10333;SDS011;5212;47.892;16.406;2023-07-28T11:36:42;2.10;;;1.90;;
10333;SDS011;5212;47.892;16.406;2023-07-28T11:39:08;2.47;;;2.10;;
10333;SDS011;5212;47.892;16.406;2023-07-28T11:41:35;2.20;;;2.00;;
10333;SDS011;5212;47.892;16.406;2023-07-28T11:44:02;2.20;;;2.00;;
10333;SDS011;5212;47.892;16.406;2023-07-28T11:46:33;2.53;;;2.33;;
10333;SDS011;5212;47.892;16.406;2023-07-28T11:49:06;2.63;;;2.10;;
10333;SDS011;5212;47.892;16.406;2023-07-28T11:51:38;2.13;;;1.93;;
10333;SDS011;5212;47.892;16.406;2023-07-28T11:54:08;2.47;;;2.20;;
10333;SDS011;5212;47.892;16.406;2023-07-28T11:56:36;2.17;;;1.90;;
10333;SDS011;5212;47.892;16.406;2023-07-28T11:59:03;2.53;;;1.90;;
10333;SDS011;5212;47.892;16.406;2023-07-28T12:01:29;2.60;;;2.40;;
10333;SDS011;5212;47.892;16.406;2023-07-28T12:03:55;2.20;;;2.00;;
10333;SDS011;5212;47.892;16.406;2023-07-28T12:06:21;2.40;;;2.20;;
10333;SDS011;5212;47.892;16.406;2023-07-28T12:08:47;2.43;;;2.23;;
10333;SDS011;5212;47.892;16.406;2023-07-28T12:11:13;2.40;;;2.20;;
10333;SDS011;5212;47.892;16.406;2023-07-28T12:13:49;2.00;;;1.90;;
10333;SDS011;5212;47.892;16.406;2023-07-28T12:18:58;2.40;;;2.20;;
10333;SDS011;5212;47.892;16.406;2023-07-28T12:21:24;2.67;;;2.20;;
10333;SDS011;5212;47.892;16.406;2023-07-28T12:23:50;2.07;;;1.97;;
10333;SDS011;5212;47.892;16.406;2023-07-28T12:26:16;2.57;;;2.10;;
10333;SDS011;5212;47.892;16.406;2023-07-28T12:28:42;2.00;;;1.90;;
10333;SDS011;5212;47.892;16.406;2023-07-28T12:31:08;2.40;;;2.20;;
10333;SDS011;5212;47.892;16.406;2023-07-28T12:33:35;2.30;;;2.07;;
10333;SDS011;5212;47.892;16.406;2023-07-28T12:36:01;1.80;;;1.70;;
10333;SDS011;5212;47.892;16.406;2023-07-28T12:38:27;2.13;;;1.97;;
10333;SDS011;5212;47.892;16.406;2023-07-28T12:40:53;2.20;;;2.00;;
10333;SDS011;5212;47.892;16.406;2023-07-28T12:43:19;1.97;;;1.80;;
10333;SDS011;5212;47.892;16.406;2023-07-28T12:45:45;2.10;;;1.90;;
10333;SDS011;5212;47.892;16.406;2023-07-28T12:48:11;1.77;;;1.63;;
10333;SDS011;5212;47.892;16.406;2023-07-28T12:50:38;2.20;;;2.00;;
10333;SDS011;5212;47.892;16.406;2023-07-28T12:53:04;2.00;;;1.80;;
10333;SDS011;5212;47.892;16.406;2023-07-28T12:55:30;2.30;;;2.10;;
10333;SDS011;5212;47.892;16.406;2023-07-28T12:57:57;2.30;;;2.10;;
10333;SDS011;5212;47.892;16.406;2023-07-28T13:00:25;2.37;;;2.17;;
10333;SDS011;5212;47.892;16.406;2023-07-28T13:02:51;2.37;;;2.17;;
10333;SDS011;5212;47.892;16.406;2023-07-28T13:05:17;2.60;;;2.40;;
10333;SDS011;5212;47.892;16.406;2023-07-28T13:07:43;2.50;;;2.30;;
10333;SDS011;5212;47.892;16.406;2023-07-28T13:10:10;2.30;;;2.10;;
10333;SDS011;5212;47.892;16.406;2023-07-28T13:12:36;2.63;;;2.23;;
10333;SDS011;5212;47.892;16.406;2023-07-28T13:15:02;2.37;;;2.10;;
10333;SDS011;5212;47.892;16.406;2023-07-28T13:17:28;2.27;;;2.03;;
10333;SDS011;5212;47.892;16.406;2023-07-28T13:19:54;2.47;;;2.00;;
10333;SDS011;5212;47.892;16.406;2023-07-28T13:22:22;2.70;;;2.30;;
10333;SDS011;5212;47.892;16.406;2023-07-28T13:24:48;2.53;;;2.33;;
10333;SDS011;5212;47.892;16.406;2023-07-28T13:27:15;2.27;;;2.07;;
10333;SDS011;5212;47.892;16.406;2023-07-28T13:29:41;3.10;;;2.30;;
10333;SDS011;5212;47.892;16.406;2023-07-28T13:32:14;2.90;;;2.43;;
10333;SDS011;5212;47.892;16.406;2023-07-28T13:34:41;3.77;;;2.50;;
10333;SDS011;5212;47.892;16.406;2023-07-28T13:37:07;2.70;;;2.50;;
10333;SDS011;5212;47.892;16.406;2023-07-28T13:39:34;2.60;;;2.40;;
10333;SDS011;5212;47.892;16.406;2023-07-28T13:42:00;3.23;;;2.23;;
10333;SDS011;5212;47.892;16.406;2023-07-28T13:44:26;2.40;;;2.20;;
10333;SDS011;5212;47.892;16.406;2023-07-28T13:46:52;2.80;;;2.17;;
10333;SDS011;5212;47.892;16.406;2023-07-28T13:49:18;2.70;;;2.50;;
10333;SDS011;5212;47.892;16.406;2023-07-28T13:51:44;2.53;;;2.30;;
10333;SDS011;5212;47.892;16.406;2023-07-28T13:54:10;4.73;;;2.77;;
10333;SDS011;5212;47.892;16.406;2023-07-28T13:56:36;2.43;;;2.23;;
10333;SDS011;5212;47.892;16.406;2023-07-28T13:59:03;2.50;;;2.27;;
10333;SDS011;5212;47.892;16.406;2023-07-28T14:01:30;3.63;;;2.60;;
10333;SDS011;5212;47.892;16.406;2023-07-28T14:03:57;2.70;;;2.50;;
10333;SDS011;5212;47.892;16.406;2023-07-28T14:06:23;2.50;;;2.10;;
10333;SDS011;5212;47.892;16.406;2023-07-28T14:08:49;3.20;;;2.30;;
10333;SDS011;5212;47.892;16.406;2023-07-28T14:11:15;4.07;;;2.50;;
10333;SDS011;5212;47.892;16.406;2023-07-28T14:13:41;2.77;;;2.40;;
10333;SDS011;5212;47.892;16.406;2023-07-28T14:16:07;2.50;;;2.30;;
10333;SDS011;5212;47.892;16.406;2023-07-28T14:18:34;2.60;;;2.40;;
10333;SDS011;5212;47.892;16.406;2023-07-28T14:21:00;2.40;;;2.10;;
10333;SDS011;5212;47.892;16.406;2023-07-28T14:23:27;4.20;;;2.50;;
10333;SDS011;5212;47.892;16.406;2023-07-28T14:25:54;3.23;;;2.17;;
10333;SDS011;5212;47.892;16.406;2023-07-28T14:28:21;2.50;;;2.30;;
10333;SDS011;5212;47.892;16.406;2023-07-28T14:30:47;2.73;;;2.10;;
10333;SDS011;5212;47.892;16.406;2023-07-28T14:33:14;2.20;;;2.00;;
10333;SDS011;5212;47.892;16.406;2023-07-28T14:35:41;4.10;;;2.23;;
10333;SDS011;5212;47.892;16.406;2023-07-28T14:38:07;2.37;;;2.17;;
10333;SDS011;5212;47.892;16.406;2023-07-28T14:40:33;1.90;;;1.80;;
10333;SDS011;5212;47.892;16.406;2023-07-28T14:42:59;2.57;;;2.00;;
10333;SDS011;5212;47.892;16.406;2023-07-28T14:45:25;1.93;;;1.83;;
10333;SDS011;5212;47.892;16.406;2023-07-28T14:47:51;2.30;;;2.10;;